Time;durP1;ratioP1;P1;durP2;ratioP2;P2;SDS_P1;SDS_P2;PMS_P1;PMS_P2;Temp;Humidity;BMP_temperature;BMP_pressure;BME280_temperature;BME280_humidity;BME280_pressure;Samples;Min_cycle;Max_cycle;Signal;HPM_P1;HPM_P2
2021/12/16 00:08:20;;;;;;;15.20;9.77;;;7.90;91.40;;;;;;5033927;28;20231;-89
2021/12/16 00:11:00;;;;;;;16.83;10.17;;;7.80;91.40;;;;;;5033208;28;20186;-89
2021/12/16 00:34:58;;;;;;;19.63;10.97;;;7.80;92.20;;;;;;5033738;28;20605;-89
2021/12/16 00:37:26;;;;;;;20.97;11.10;;;7.80;92.20;;;;;;5032129;28;20183;-89
2021/12/16 00:39:52;;;;;;;23.90;11.30;;;7.80;92.20;;;;;;5032089;28;20556;-89
2021/12/16 00:42:49;;;;;;;26.03;10.90;;;7.90;92.20;;;;;;5032033;28;20200;-89
2021/12/16 00:56:00;;;;;;;33.43;12.97;;;7.90;92.50;;;;;;5033749;28;20164;-89
2021/12/16 00:58:33;;;;;;;18.73;12.03;;;7.90;92.50;;;;;;5032289;28;20180;-89
2021/12/16 01:01:32;;;;;;;28.83;12.13;;;7.90;92.50;;;;;;5031863;28;20249;-89
2021/12/16 01:34:10;;;;;;;30.80;15.07;;;7.90;92.90;;;;;;5037147;28;20204;-89
2021/12/16 01:39:56;;;;;;;29.60;14.47;;;7.90;93.10;;;;;;5036932;28;20256;-89
2021/12/16 01:50:54;;;;;;;36.10;16.20;;;7.80;93.60;;;;;;5038140;28;20663;-89
2021/12/16 01:58:51;;;;;;;29.27;14.87;;;7.80;94.00;;;;;;5036558;28;20317;-89
2021/12/16 02:01:21;;;;;;;37.57;18.23;;;7.80;94.00;;;;;;5035823;28;20335;-89
2021/12/16 02:04:01;;;;;;;37.80;17.00;;;7.80;94.10;;;;;;5034752;28;20176;-89
2021/12/16 02:06:46;;;;;;;32.40;17.63;;;7.80;94.20;;;;;;5034699;28;20176;-89
2021/12/16 02:09:24;;;;;;;45.93;19.37;;;7.80;94.20;;;;;;5036363;28;20196;-89
2021/12/16 02:31:16;;;;;;;45.23;22.20;;;7.80;94.70;;;;;;5035692;28;20200;-89
2021/12/16 02:38:46;;;;;;;47.73;22.60;;;7.80;94.90;;;;;;5035616;28;20263;-89
2021/12/16 02:41:13;;;;;;;44.97;21.07;;;7.80;95.00;;;;;;5034036;28;20231;-89
2021/12/16 02:44:06;;;;;;;58.67;23.60;;;7.80;95.10;;;;;;5034887;28;20200;-89
2021/12/16 02:49:08;;;;;;;59.73;24.83;;;7.90;95.20;;;;;;5035413;28;20242;-89
2021/12/16 02:51:34;;;;;;;58.73;24.30;;;7.80;95.20;;;;;;5035128;28;20592;-90
2021/12/16 02:54:04;;;;;;;57.33;25.03;;;7.80;95.20;;;;;;5035304;28;20199;-89
2021/12/16 02:56:30;;;;;;;62.97;25.17;;;7.90;95.20;;;;;;5033819;28;20199;-89
2021/12/16 02:58:57;;;;;;;70.63;25.80;;;7.90;95.30;;;;;;5033759;28;20183;-89
2021/12/16 03:01:34;;;;;;;56.13;24.50;;;7.90;95.30;;;;;;5033545;28;20224;-89
2021/12/16 03:04:02;;;;;;;70.40;27.70;;;7.90;95.30;;;;;;5033774;28;20540;-89
2021/12/16 03:06:31;;;;;;;59.57;24.77;;;7.90;95.40;;;;;;5033646;28;20173;-89
2021/12/16 03:08:57;;;;;;;65.33;26.57;;;7.90;95.40;;;;;;5034643;28;20196;-89
2021/12/16 03:11:37;;;;;;;71.87;29.17;;;7.90;95.30;;;;;;5033488;28;20197;-90
2021/12/16 03:19:22;;;;;;;69.30;26.60;;;7.90;95.40;;;;;;5034887;28;20161;-89
2021/12/16 03:21:53;;;;;;;71.97;28.23;;;8.00;95.40;;;;;;5033222;28;20671;-89
2021/12/16 03:33:31;;;;;;;67.60;27.23;;;8.00;95.40;;;;;;5034256;28;20216;-89
2021/12/16 03:37:53;;;;;;;63.97;27.33;;;7.90;95.40;;;;;;5034231;28;20219;-89
2021/12/16 03:40:20;;;;;;;77.17;28.57;;;8.00;95.40;;;;;;5032994;28;20184;-89
2021/12/16 03:42:57;;;;;;;61.70;26.27;;;8.00;95.50;;;;;;5032850;28;20203;-89
2021/12/16 03:48:27;;;;;;;67.33;28.27;;;8.00;95.50;;;;;;5034143;28;20571;-89
2021/12/16 03:50:53;;;;;;;77.73;28.03;;;8.00;95.50;;;;;;5032771;28;20203;-89
2021/12/16 03:53:19;;;;;;;82.93;29.83;;;8.10;95.50;;;;;;5032691;28;20546;-89
2021/12/16 03:55:46;;;;;;;80.27;28.97;;;8.10;95.50;;;;;;5033506;28;20187;-89
2021/12/16 03:58:13;;;;;;;72.37;29.70;;;8.10;95.40;;;;;;5032753;28;20600;-89
2021/12/16 04:00:44;;;;;;;72.67;28.43;;;8.00;95.40;;;;;;5032691;28;20242;-89
2021/12/16 04:03:10;;;;;;;71.90;29.67;;;8.10;95.40;;;;;;5032899;28;20243;-89
2021/12/16 04:05:37;;;;;;;69.17;27.73;;;8.00;95.40;;;;;;5032479;28;20552;-89
2021/12/16 04:08:03;;;;;;;81.80;28.50;;;8.10;95.50;;;;;;5032465;28;20201;-89
2021/12/16 04:10:47;;;;;;;82.93;28.70;;;8.10;95.40;;;;;;5033638;28;20180;-89
2021/12/16 04:13:15;;;;;;;64.07;25.73;;;8.10;95.40;;;;;;5032480;28;20670;-89
2021/12/16 04:15:42;;;;;;;71.77;27.80;;;8.20;95.40;;;;;;5032658;28;20177;-89
2021/12/16 04:18:08;;;;;;;81.90;30.33;;;8.20;95.40;;;;;;5032245;28;20241;-89
2021/12/16 04:20:34;;;;;;;88.17;29.37;;;8.20;95.40;;;;;;5032176;28;20181;-89
2021/12/16 04:23:01;;;;;;;88.87;29.07;;;8.20;95.40;;;;;;5032323;28;20208;-89
2021/12/16 04:25:33;;;;;;;82.27;31.63;;;8.20;95.40;;;;;;5032167;28;20184;-89
2021/12/16 04:28:05;;;;;;;76.10;28.90;;;8.20;95.40;;;;;;5032231;28;20299;-89
2021/12/16 04:30:32;;;;;;;75.43;28.40;;;8.20;95.40;;;;;;5032441;28;20173;-89
2021/12/16 04:32:58;;;;;;;90.07;29.67;;;8.20;95.50;;;;;;5033431;28;20183;-89
2021/12/16 04:35:24;;;;;;;74.03;27.53;;;8.20;95.50;;;;;;5032190;28;20220;-89
2021/12/16 04:37:50;;;;;;;77.07;30.23;;;8.20;95.40;;;;;;5032169;28;20180;-89
2021/12/16 04:40:17;;;;;;;94.23;29.73;;;8.20;95.50;;;;;;5032111;28;20180;-89
2021/12/16 04:42:44;;;;;;;72.00;29.43;;;8.10;95.40;;;;;;5032172;28;20575;-89
2021/12/16 04:45:12;;;;;;;105.60;34.47;;;8.20;95.50;;;;;;5033228;28;20251;-89
2021/12/16 04:47:39;;;;;;;96.40;32.80;;;8.20;95.50;;;;;;5035928;28;20199;-89
2021/12/16 04:50:07;;;;;;;99.07;34.13;;;8.20;95.50;;;;;;5036070;28;20206;-89
2021/12/16 04:52:33;;;;;;;93.17;31.83;;;8.20;95.60;;;;;;5035956;28;20283;-89
2021/12/16 04:54:58;;;;;;;102.57;35.93;;;8.20;95.60;;;;;;5036406;28;20208;-89
2021/12/16 04:57:24;;;;;;;107.57;33.83;;;8.20;95.60;;;;;;5036216;28;20168;-90
2021/12/16 04:59:50;;;;;;;96.33;32.30;;;8.20;95.60;;;;;;5035860;28;20295;-89
2021/12/16 05:02:20;;;;;;;94.30;34.77;;;8.20;95.60;;;;;;5036067;28;20266;-89
2021/12/16 05:04:46;;;;;;;106.80;33.27;;;8.20;95.70;;;;;;5037323;28;20525;-89
2021/12/16 05:07:13;;;;;;;105.67;31.47;;;8.20;95.70;;;;;;5035961;28;20523;-89
2021/12/16 05:12:10;;;;;;;97.80;30.87;;;8.20;95.70;;;;;;5037019;28;20557;-90
2021/12/16 05:14:36;;;;;;;95.97;28.13;;;8.20;95.70;;;;;;5035734;28;20172;-90
2021/12/16 05:17:08;;;;;;;97.27;29.20;;;8.20;95.70;;;;;;5036866;28;20173;-89
2021/12/16 05:19:34;;;;;;;96.67;29.57;;;8.20;95.80;;;;;;5035605;28;20184;-89
2021/12/16 05:24:15;;;;;;;96.90;28.27;;;8.30;95.80;;;;;;5035384;28;20200;-89
2021/12/16 05:24:45;;;;;;;106.90;28.93;;;8.20;95.80;;;;;;5036633;28;20180;-89
2021/12/16 05:27:12;;;;;;;96.00;27.90;;;8.30;95.80;;;;;;5035380;28;20176;-89
2021/12/16 05:29:38;;;;;;;92.30;28.07;;;8.30;95.90;;;;;;5035320;28;20227;-89
2021/12/16 05:32:05;;;;;;;91.37;28.10;;;8.30;95.90;;;;;;5036517;28;20188;-89
2021/12/16 05:34:31;;;;;;;106.13;28.53;;;8.30;95.90;;;;;;5035551;28;20173;-89
2021/12/16 05:36:57;;;;;;;91.87;28.53;;;8.30;95.90;;;;;;5035287;28;20536;-89
2021/12/16 05:39:24;;;;;;;75.80;27.87;;;8.30;95.90;;;;;;5036482;28;20173;-89
2021/12/16 05:41:50;;;;;;;89.47;26.63;;;8.30;95.90;;;;;;5036288;28;20193;-90
2021/12/16 05:44:16;;;;;;;81.10;27.23;;;8.30;95.90;;;;;;5035065;28;20181;-89
2021/12/16 05:46:42;;;;;;;104.90;27.73;;;8.30;95.90;;;;;;5036574;28;20637;-89
2021/12/16 05:49:12;;;;;;;97.50;25.73;;;8.30;96.00;;;;;;5035224;28;20204;-89
2021/12/16 05:51:41;;;;;;;109.90;27.87;;;8.30;96.00;;;;;;5034946;28;20555;-90
2021/12/16 05:54:08;;;;;;;88.40;27.43;;;8.30;96.00;;;;;;5035928;28;20643;-90
2021/12/16 05:56:35;;;;;;;88.97;27.57;;;8.30;96.00;;;;;;5036102;28;20169;-89
2021/12/16 05:59:01;;;;;;;100.80;28.23;;;8.30;96.00;;;;;;5034229;28;20547;-90
2021/12/16 06:01:34;;;;;;;95.73;27.30;;;8.30;96.00;;;;;;5035281;28;20212;-89
2021/12/16 06:04:01;;;;;;;92.93;27.47;;;8.30;96.00;;;;;;5035728;28;20704;-90
2021/12/16 06:06:28;;;;;;;78.57;26.70;;;8.30;96.00;;;;;;5036100;28;20219;-89
2021/12/16 06:08:54;;;;;;;83.43;25.40;;;8.30;96.00;;;;;;5034896;28;20203;-90
2021/12/16 06:11:25;;;;;;;79.10;25.20;;;8.30;96.00;;;;;;5034644;28;20192;-90
2021/12/16 06:14:09;;;;;;;97.73;26.03;;;8.30;96.00;;;;;;5034627;28;20655;-90
2021/12/16 06:27:36;;;;;;;75.53;25.17;;;8.30;96.10;;;;;;5036043;28;20250;-90
2021/12/16 06:30:06;;;;;;;88.80;25.40;;;8.30;96.10;;;;;;5035497;28;20169;-90
2021/12/16 06:32:32;;;;;;;78.20;24.47;;;8.30;96.10;;;;;;5034375;28;20281;-90
2021/12/16 06:34:58;;;;;;;92.00;25.37;;;8.30;96.10;;;;;;5035461;28;20197;-90
2021/12/16 06:37:23;;;;;;;83.13;24.83;;;8.30;96.10;;;;;;5034355;28;20647;-90
2021/12/16 06:39:49;;;;;;;79.17;24.83;;;8.30;96.10;;;;;;5034498;28;20185;-90
2021/12/16 06:42:15;;;;;;;87.93;24.20;;;8.30;96.10;;;;;;5034071;28;20267;-90
2021/12/16 06:44:51;;;;;;;82.60;25.50;;;8.40;96.10;;;;;;5035216;28;20180;-90
2021/12/16 06:47:22;;;;;;;83.93;24.27;;;8.40;96.10;;;;;;5034863;28;20635;-90
2021/12/16 06:49:51;;;;;;;79.87;24.93;;;8.30;96.10;;;;;;5034754;28;20204;-90
2021/12/16 06:52:20;;;;;;;75.03;24.27;;;8.40;96.10;;;;;;5034149;28;20201;-90
2021/12/16 06:57:53;;;;;;;89.97;23.97;;;8.40;96.20;;;;;;5053095;28;20175;-90
2021/12/16 07:00:36;;;;;;;76.13;24.37;;;8.30;96.20;;;;;;5036915;28;20192;-90
2021/12/16 07:03:05;;;;;;;82.47;24.00;;;8.30;96.20;;;;;;5034126;28;20275;-90
2021/12/16 07:05:38;;;;;;;77.33;24.77;;;8.30;96.20;;;;;;5034852;28;20183;-90
2021/12/16 07:08:08;;;;;;;76.73;24.83;;;8.30;96.20;;;;;;5033518;28;20197;-90
2021/12/16 07:10:34;;;;;;;92.17;26.20;;;8.40;96.20;;;;;;5033491;28;20168;-90
2021/12/16 07:13:06;;;;;;;94.93;23.67;;;8.40;96.20;;;;;;5033825;28;20177;-90
2021/12/16 07:15:33;;;;;;;77.17;25.57;;;8.30;96.20;;;;;;5033491;28;20172;-90
2021/12/16 07:17:59;;;;;;;88.10;22.93;;;8.40;96.20;;;;;;5033368;28;20633;-90
2021/12/16 07:20:28;;;;;;;93.00;23.33;;;8.40;96.20;;;;;;5033338;28;20181;-90
2021/12/16 07:22:57;;;;;;;69.07;20.87;;;8.40;96.20;;;;;;5033470;28;20204;-90
2021/12/16 07:25:22;;;;;;;67.03;20.10;;;8.40;96.20;;;;;;5033262;28;20279;-90
2021/12/16 07:27:48;;;;;;;77.87;23.07;;;8.40;96.20;;;;;;5033131;28;22207;-90
2021/12/16 07:30:16;;;;;;;72.27;20.90;;;8.40;96.20;;;;;;5033082;28;20187;-90
2021/12/16 07:32:42;;;;;;;49.73;18.27;;;8.40;96.20;;;;;;5034558;28;20195;-90
2021/12/16 07:35:16;;;;;;;50.77;17.47;;;8.40;96.20;;;;;;5033823;28;20605;-90
2021/12/16 07:37:42;;;;;;;62.20;18.40;;;8.40;96.20;;;;;;5033067;28;20693;-90
2021/12/16 07:40:11;;;;;;;47.23;16.53;;;8.40;96.20;;;;;;5033262;28;20216;-90
2021/12/16 07:42:47;;;;;;;54.90;16.57;;;8.40;96.20;;;;;;5032908;28;20193;-90
2021/12/16 07:45:17;;;;;;;62.27;18.30;;;8.40;96.20;;;;;;5032876;28;20184;-90
2021/12/16 07:47:43;;;;;;;67.03;18.50;;;8.40;96.20;;;;;;5032734;28;20227;-90
2021/12/16 07:50:10;;;;;;;63.43;19.10;;;8.40;96.20;;;;;;5032780;28;20260;-90
2021/12/16 07:52:37;;;;;;;56.83;18.97;;;8.40;96.20;;;;;;5032845;28;20197;-91
2021/12/16 07:55:04;;;;;;;56.60;18.67;;;8.40;96.20;;;;;;5032860;28;20180;-90
2021/12/16 07:57:30;;;;;;;51.80;17.20;;;8.40;96.20;;;;;;5033104;28;20208;-90
2021/12/16 07:59:55;;;;;;;59.83;17.77;;;8.40;96.20;;;;;;5032715;28;20584;-90
2021/12/16 08:02:21;;;;;;;57.20;17.67;;;8.40;96.20;;;;;;5032898;28;20255;-90
2021/12/16 08:04:49;;;;;;;51.13;16.27;;;8.40;96.20;;;;;;5032866;28;20181;-90
2021/12/16 08:07:18;;;;;;;64.87;17.37;;;8.40;96.20;;;;;;5033762;28;20172;-90
2021/12/16 08:09:45;;;;;;;56.00;17.50;;;8.40;96.20;;;;;;5033269;28;20215;-90
2021/12/16 08:12:13;;;;;;;49.10;15.27;;;8.40;96.20;;;;;;5032667;28;20579;-90
2021/12/16 08:14:41;;;;;;;49.80;16.43;;;8.40;96.20;;;;;;5032397;28;20655;-90
2021/12/16 08:17:08;;;;;;;50.87;18.00;;;8.40;96.20;;;;;;5032403;28;20652;-90
2021/12/16 08:19:34;;;;;;;49.77;16.63;;;8.40;96.20;;;;;;5032232;28;20187;-90
2021/12/16 08:21:59;;;;;;;53.93;15.90;;;8.40;96.20;;;;;;5031776;28;20200;-90
2021/12/16 08:24:25;;;;;;;56.07;17.00;;;8.40;96.20;;;;;;5032278;28;20239;-90
2021/12/16 08:26:53;;;;;;;52.40;17.30;;;8.40;96.20;;;;;;5032305;28;20184;-90
2021/12/16 08:29:19;;;;;;;52.00;16.27;;;8.40;96.20;;;;;;5032099;28;20212;-90
2021/12/16 08:31:46;;;;;;;48.27;16.40;;;8.30;96.30;;;;;;5032310;28;20220;-90
2021/12/16 08:34:12;;;;;;;38.87;15.13;;;8.30;96.30;;;;;;5032139;28;20629;-89
2021/12/16 08:36:38;;;;;;;41.23;15.20;;;8.40;96.30;;;;;;5032095;28;20173;-90
2021/12/16 08:39:09;;;;;;;37.80;14.47;;;8.40;96.30;;;;;;5032325;28;20628;-90
2021/12/16 08:41:40;;;;;;;36.33;15.23;;;8.40;96.30;;;;;;5032180;28;20201;-90
2021/12/16 08:44:05;;;;;;;38.33;15.43;;;8.50;96.30;;;;;;5032321;28;20546;-90
2021/12/16 08:46:35;;;;;;;34.83;14.57;;;8.50;96.30;;;;;;5032353;28;20185;-90
2021/12/16 08:49:01;;;;;;;44.47;15.20;;;8.40;96.30;;;;;;5031993;28;20208;-89
2021/12/16 08:51:35;;;;;;;38.67;14.13;;;8.40;96.30;;;;;;5032005;28;20197;-90
2021/12/16 08:54:01;;;;;;;50.00;15.70;;;8.50;96.30;;;;;;5032071;28;20172;-90
2021/12/16 08:56:28;;;;;;;36.23;12.60;;;8.50;96.30;;;;;;5032242;28;20188;-90
2021/12/16 08:58:55;;;;;;;34.30;12.53;;;8.50;96.30;;;;;;5032747;28;20185;-90
2021/12/16 09:01:24;;;;;;;37.73;13.80;;;8.50;96.30;;;;;;5031865;28;20216;-90
2021/12/16 09:03:51;;;;;;;36.17;11.97;;;8.50;96.30;;;;;;5031963;28;20181;-90
2021/12/16 09:06:17;;;;;;;33.37;12.83;;;8.60;96.30;;;;;;5033189;28;20238;-90
2021/12/16 09:08:43;;;;;;;33.43;11.57;;;8.50;96.30;;;;;;5031769;28;20246;-90
2021/12/16 09:11:09;;;;;;;35.43;12.50;;;8.50;96.20;;;;;;5031796;28;20197;-90
2021/12/16 09:13:39;;;;;;;24.90;11.73;;;8.50;96.20;;;;;;5033006;28;20172;-90
2021/12/16 09:16:11;;;;;;;37.13;12.73;;;8.50;96.10;;;;;;5032969;28;20575;-90
2021/12/16 09:18:41;;;;;;;33.20;11.50;;;8.50;96.10;;;;;;5031741;28;20188;-90
2021/12/16 09:21:12;;;;;;;29.87;11.93;;;8.50;96.10;;;;;;5031642;28;20208;-90
2021/12/16 09:23:40;;;;;;;30.73;12.60;;;8.50;96.10;;;;;;5031942;28;20182;-90
2021/12/16 09:26:06;;;;;;;31.57;12.67;;;8.50;96.00;;;;;;5032158;28;20644;-89
2021/12/16 09:28:32;;;;;;;34.10;12.10;;;8.50;95.90;;;;;;5031883;28;20208;-90
2021/12/16 09:30:58;;;;;;;30.53;11.43;;;8.40;95.70;;;;;;5031702;28;20275;-91
2021/12/16 09:33:25;;;;;;;34.93;11.00;;;8.50;95.70;;;;;;5033043;28;20705;-90
2021/12/16 09:35:58;;;;;;;34.43;11.40;;;8.50;95.70;;;;;;5035291;28;20265;-90
2021/12/16 09:38:24;;;;;;;27.37;11.90;;;8.50;95.50;;;;;;5035282;28;20180;-89
2021/12/16 09:40:54;;;;;;;30.83;11.40;;;8.50;95.30;;;;;;5035175;28;20232;-90
2021/12/16 09:43:27;;;;;;;36.17;12.03;;;8.50;95.20;;;;;;5035170;28;20614;-89
2021/12/16 09:45:57;;;;;;;32.03;11.70;;;8.50;95.20;;;;;;5035168;28;20173;-90
2021/12/16 09:48:24;;;;;;;18.40;10.30;;;8.60;95.20;;;;;;5035222;28;20205;-88
2021/12/16 09:50:51;;;;;;;35.80;11.07;;;8.70;95.20;;;;;;5036182;28;20738;-88
2021/12/16 09:53:18;;;;;;;27.07;10.13;;;8.80;95.10;;;;;;5036102;28;20179;-88
2021/12/16 09:55:46;;;;;;;30.93;10.03;;;8.80;95.10;;;;;;5036090;28;20207;-88
2021/12/16 09:58:12;;;;;;;25.53;9.07;;;8.80;95.10;;;;;;5034774;28;20249;-88
2021/12/16 10:00:38;;;;;;;21.70;8.23;;;8.90;95.00;;;;;;5034755;28;20603;-88
2021/12/16 10:03:05;;;;;;;20.93;7.73;;;8.80;94.90;;;;;;5036266;28;20283;-88
2021/12/16 10:05:31;;;;;;;21.63;6.10;;;8.80;94.80;;;;;;5034783;28;20671;-88
2021/12/16 10:07:58;;;;;;;14.40;5.17;;;8.80;94.50;;;;;;5034589;28;20296;-88
2021/12/16 10:10:26;;;;;;;18.33;5.30;;;8.80;93.90;;;;;;5034688;28;20184;-88
2021/12/16 10:12:55;;;;;;;21.03;5.13;;;8.80;93.90;;;;;;5034820;28;20254;-88
2021/12/16 10:18:12;;;;;;;14.33;3.33;;;8.90;93.20;;;;;;5036135;28;20164;-88
2021/12/16 10:20:43;;;;;;;16.90;3.63;;;8.80;92.70;;;;;;5035728;28;20165;-88
2021/12/16 10:23:12;;;;;;;16.23;4.13;;;8.90;92.80;;;;;;5034469;28;20629;-88
2021/12/16 10:26:09;;;;;;;14.30;3.60;;;8.90;92.90;;;;;;5034940;28;20181;-88
2021/12/16 10:28:39;;;;;;;14.30;3.53;;;8.90;92.40;;;;;;5034476;28;20417;-88
2021/12/16 10:31:09;;;;;;;20.43;3.77;;;8.80;91.90;;;;;;5034275;28;20197;-88
2021/12/16 10:33:55;;;;;;;19.17;3.90;;;8.80;91.60;;;;;;5034144;28;20185;-88
2021/12/16 10:36:43;;;;;;;17.13;3.87;;;8.90;91.80;;;;;;5034209;28;20164;-88
2021/12/16 10:39:18;;;;;;;15.17;3.47;;;8.90;91.80;;;;;;5034187;28;20173;-89
2021/12/16 10:41:50;;;;;;;19.70;3.80;;;9.00;91.90;;;;;;5034052;28;20200;-88
2021/12/16 10:44:20;;;;;;;15.10;3.70;;;9.00;91.80;;;;;;5033630;28;20172;-88
2021/12/16 10:47:06;;;;;;;12.83;3.40;;;9.10;92.00;;;;;;5034021;28;20271;-88
2021/12/16 10:49:42;;;;;;;15.03;3.63;;;9.00;91.00;;;;;;5033504;28;20278;-88
2021/12/16 10:52:11;;;;;;;12.73;3.30;;;9.00;91.30;;;;;;5035102;28;20185;-91
2021/12/16 10:54:40;;;;;;;16.23;3.50;;;9.00;91.20;;;;;;5035304;28;20169;-91
2021/12/16 10:57:19;;;;;;;20.90;4.60;;;9.10;91.20;;;;;;5035021;28;20192;-91
2021/12/16 10:59:51;;;;;;;15.63;3.30;;;9.10;91.20;;;;;;5034946;28;20210;-91
2021/12/16 11:02:18;;;;;;;17.60;3.30;;;9.10;91.30;;;;;;5034721;28;20216;-91
2021/12/16 11:05:15;;;;;;;16.03;3.83;;;9.10;90.80;;;;;;5035035;28;20552;-91
2021/12/16 11:07:45;;;;;;;17.30;3.10;;;9.10;91.00;;;;;;5035737;28;20207;-91
2021/12/16 11:10:18;;;;;;;16.03;3.30;;;9.10;90.90;;;;;;5034740;28;20177;-91
2021/12/16 11:12:52;;;;;;;19.27;3.33;;;9.10;91.00;;;;;;5034976;28;20734;-91
2021/12/16 11:15:23;;;;;;;12.00;3.37;;;9.10;90.70;;;;;;5033481;28;20175;-91
2021/12/16 11:17:48;;;;;;;20.57;3.57;;;9.10;90.40;;;;;;5034965;28;20196;-91
2021/12/16 11:20:35;;;;;;;16.27;2.90;;;9.10;90.60;;;;;;5034500;28;20258;-91
2021/12/16 11:23:09;;;;;;;18.57;3.63;;;9.10;90.50;;;;;;5033345;28;20227;-91
2021/12/16 11:25:47;;;;;;;18.50;3.13;;;9.10;90.50;;;;;;5034448;28;20164;-91
2021/12/16 11:28:31;;;;;;;21.70;3.83;;;9.10;90.40;;;;;;5033153;28;20208;-91
2021/12/16 11:31:07;;;;;;;15.17;3.53;;;9.20;90.50;;;;;;5033246;28;20193;-91
2021/12/16 11:33:47;;;;;;;25.30;3.97;;;9.20;90.20;;;;;;5034350;28;20164;-91
2021/12/16 11:36:19;;;;;;;20.47;3.50;;;9.20;90.40;;;;;;5034286;28;20160;-91
2021/12/16 11:38:48;;;;;;;13.10;3.17;;;9.10;90.30;;;;;;5034224;28;20161;-91
2021/12/16 11:41:17;;;;;;;19.33;3.80;;;9.20;90.40;;;;;;5032903;28;20205;-92
2021/12/16 11:43:57;;;;;;;13.03;3.20;;;9.20;90.40;;;;;;5032886;28;20183;-91
2021/12/16 11:46:34;;;;;;;19.30;3.80;;;9.20;90.20;;;;;;5034148;28;20169;-91
2021/12/16 11:49:10;;;;;;;16.87;3.43;;;9.20;90.20;;;;;;5032993;28;20246;-91
2021/12/16 11:51:46;;;;;;;16.93;3.53;;;9.30;90.10;;;;;;5033150;28;20246;-91
2021/12/16 11:54:26;;;;;;;13.80;2.57;;;9.30;90.00;;;;;;5032753;28;20641;-91
2021/12/16 11:57:18;;;;;;;20.70;3.40;;;9.30;90.20;;;;;;5032393;28;20259;-91
2021/12/16 11:59:54;;;;;;;19.00;3.70;;;9.30;90.00;;;;;;5033334;28;20198;-91
2021/12/16 12:02:23;;;;;;;17.47;3.27;;;9.30;90.10;;;;;;5033237;28;20322;-91
2021/12/16 12:04:49;;;;;;;21.83;3.00;;;9.30;90.30;;;;;;5033997;28;20173;-91
2021/12/16 12:07:17;;;;;;;18.80;3.77;;;9.20;89.60;;;;;;5032512;28;20604;-91
2021/12/16 12:09:51;;;;;;;15.53;3.60;;;9.20;89.60;;;;;;5032364;28;20204;-90
2021/12/16 12:12:40;;;;;;;17.53;3.47;;;9.10;89.00;;;;;;5032500;28;20196;-91
2021/12/16 12:15:09;;;;;;;23.37;5.80;;;9.10;89.20;;;;;;5032647;28;20164;-91
2021/12/16 12:17:52;;;;;;;14.53;3.23;;;9.10;89.20;;;;;;5033570;28;20176;-91
2021/12/16 12:20:31;;;;;;;15.27;3.07;;;9.10;89.20;;;;;;5033874;28;20161;-91
2021/12/16 12:22:57;;;;;;;11.40;3.00;;;9.10;89.20;;;;;;5032345;28;20298;-91
2021/12/16 12:25:24;;;;;;;14.00;3.13;;;9.10;89.50;;;;;;5032290;28;20199;-91
2021/12/16 12:27:49;;;;;;;15.17;4.00;;;9.10;89.30;;;;;;5032135;28;20223;-91
2021/12/16 12:30:16;;;;;;;13.13;3.37;;;9.10;89.30;;;;;;5033344;28;20173;-91
2021/12/16 12:32:46;;;;;;;19.30;3.60;;;9.20;89.70;;;;;;5031910;28;20228;-91
2021/12/16 12:35:17;;;;;;;16.40;3.13;;;9.20;89.70;;;;;;5033648;28;20164;-91
2021/12/16 12:37:47;;;;;;;21.70;5.27;;;9.20;89.80;;;;;;5033354;28;20159;-91
2021/12/16 12:40:29;;;;;;;19.40;4.37;;;9.20;89.60;;;;;;5033279;28;20222;-91
2021/12/16 12:42:56;;;;;;;27.07;3.57;;;9.20;89.90;;;;;;5033180;28;20715;-91
2021/12/16 12:45:30;;;;;;;18.90;3.67;;;9.20;90.00;;;;;;5033282;28;20168;-91
2021/12/16 12:47:59;;;;;;;19.63;4.93;;;9.20;89.80;;;;;;5031979;28;20703;-91
2021/12/16 12:50:37;;;;;;;15.57;3.57;;;9.20;89.30;;;;;;5033213;28;20169;-91
2021/12/16 12:53:15;;;;;;;14.47;3.67;;;9.00;88.40;;;;;;5033496;28;20686;-91
2021/12/16 12:55:42;;;;;;;28.27;4.57;;;8.90;88.20;;;;;;5033484;28;20160;-91
2021/12/16 12:58:16;;;;;;;19.13;3.60;;;9.00;88.40;;;;;;5033101;28;20640;-91
2021/12/16 13:00:49;;;;;;;20.47;4.03;;;9.00;88.60;;;;;;5033115;28;20179;-91
2021/12/16 13:03:25;;;;;;;16.47;3.73;;;9.00;88.80;;;;;;5033364;28;20232;-91
2021/12/16 13:05:53;;;;;;;15.63;3.87;;;8.90;88.70;;;;;;5033126;28;20164;-91
2021/12/16 13:08:35;;;;;;;20.37;3.90;;;8.90;88.50;;;;;;5033846;28;20575;-91
2021/12/16 13:11:12;;;;;;;15.70;3.07;;;8.90;88.60;;;;;;5037014;28;20324;-91
2021/12/16 13:14:09;;;;;;;11.50;3.07;;;8.90;88.80;;;;;;5037043;28;20153;-91
2021/12/16 13:28:05;;;;;;;17.10;4.03;;;8.80;88.50;;;;;;5037070;28;20199;-91
2021/12/16 13:30:40;;;;;;;17.27;3.33;;;8.70;88.60;;;;;;5036760;28;20149;-91
2021/12/16 13:33:18;;;;;;;16.40;3.13;;;8.70;88.70;;;;;;5035408;28;20226;-91
2021/12/16 13:35:49;;;;;;;18.87;3.27;;;8.70;88.80;;;;;;5035355;28;20204;-91
2021/12/16 13:38:19;;;;;;;14.50;3.33;;;8.70;88.80;;;;;;5035323;28;20168;-91
2021/12/16 13:40:45;;;;;;;16.13;4.07;;;8.70;89.00;;;;;;5036368;28;20176;-91
2021/12/16 13:43:28;;;;;;;17.90;4.17;;;8.60;89.00;;;;;;5036357;28;20185;-91
2021/12/16 13:49:14;;;;;;;14.67;4.00;;;8.60;88.90;;;;;;5036313;28;20211;-91
2021/12/16 14:01:08;;;;;;;13.27;3.37;;;8.60;88.70;;;;;;5036104;28;20283;-91
2021/12/16 14:03:49;;;;;;;11.37;3.23;;;8.50;88.30;;;;;;5036156;28;20176;-91
2021/12/16 14:06:31;;;;;;;17.77;3.20;;;8.40;88.50;;;;;;5034881;28;20661;-91
2021/12/16 14:09:16;;;;;;;17.77;4.47;;;8.50;88.60;;;;;;5036413;28;20262;-90
2021/12/16 14:18:01;;;;;;;24.50;4.03;;;8.50;89.00;;;;;;5035875;28;20164;-91
2021/12/16 14:24:06;;;;;;;18.30;4.30;;;8.40;89.30;;;;;;5035799;28;20763;-91
2021/12/16 14:35:35;;;;;;;14.80;3.40;;;8.30;89.60;;;;;;5035777;28;20211;-91
2021/12/16 14:38:26;;;;;;;14.10;3.17;;;8.30;89.50;;;;;;5035306;28;20226;-91
2021/12/16 14:41:03;;;;;;;18.17;3.40;;;8.30;89.50;;;;;;5035105;28;20185;-91
2021/12/16 14:43:38;;;;;;;19.10;3.27;;;8.30;89.50;;;;;;5035513;28;20181;-91
2021/12/16 14:46:07;;;;;;;14.80;3.00;;;8.30;89.60;;;;;;5034101;28;20230;-91
2021/12/16 14:49:02;;;;;;;13.70;2.93;;;8.30;89.80;;;;;;5039958;28;20265;-93
2021/12/16 14:51:38;;;;;;;12.53;3.50;;;8.20;89.80;;;;;;5170156;22;20247;-96
2021/12/16 14:54:08;;;;;;;16.73;3.23;;;8.20;89.80;;;;;;5096100;22;20232;-95
2021/12/16 14:56:37;;;;;;;23.93;3.50;;;8.20;89.80;;;;;;5041537;28;20160;-96
2021/12/16 14:59:11;;;;;;;15.10;2.80;;;8.20;89.90;;;;;;5041529;28;20149;-95
2021/12/16 15:01:40;;;;;;;20.43;3.33;;;8.20;89.80;;;;;;5041442;28;20153;-95
2021/12/16 15:04:10;;;;;;;13.20;3.57;;;8.20;89.70;;;;;;5041417;28;20209;-95
2021/12/16 15:06:45;;;;;;;13.53;3.57;;;8.10;89.70;;;;;;5041369;28;20149;-95
2021/12/16 15:09:28;;;;;;;12.70;3.37;;;8.10;89.70;;;;;;5041326;28;20200;-95
2021/12/16 15:12:17;;;;;;;11.13;2.90;;;8.20;89.60;;;;;;5041198;28;20142;-94
2021/12/16 15:39:00;;;;;;;15.40;3.93;;;8.00;90.20;;;;;;5034565;28;20605;-88
2021/12/16 15:44:12;;;;;;;19.70;4.60;;;8.00;90.50;;;;;;5034396;28;20168;-89
2021/12/16 20:10:48;;;;;;;18.87;9.97;;;6.90;93.10;;;;;;5079599;23;20703;-91
2021/12/16 20:13:17;;;;;;;19.17;10.47;;;6.90;93.10;;;;;;5032609;28;20203;-91
2021/12/16 20:15:47;;;;;;;23.47;12.43;;;6.90;93.10;;;;;;5032532;28;20222;-90
2021/12/16 20:18:17;;;;;;;19.27;12.63;;;6.90;93.10;;;;;;5031929;28;20161;-90
2021/12/16 20:20:49;;;;;;;22.70;12.80;;;7.00;93.10;;;;;;5032989;28;20556;-91
2021/12/16 21:25:26;;;;;;;17.90;11.67;;;7.10;93.30;;;;;;5025847;22;20201;-93
2021/12/16 21:27:58;;;;;;;15.30;10.93;;;7.10;93.30;;;;;;5019774;28;20139;-94
2021/12/16 21:30:27;;;;;;;16.40;11.03;;;7.20;93.30;;;;;;5023408;28;20174;-93
2021/12/16 21:33:14;;;;;;;18.67;9.70;;;7.10;93.30;;;;;;5023389;28;20143;-94
2021/12/16 21:35:45;;;;;;;19.00;10.53;;;7.20;93.30;;;;;;5023447;28;20131;-94
